This is the latest recevied weather packets stored in our database for station/object K5GHS-1. If no packets are shown the sender has not sent any weather packets the latest 1 day(s).
| Time | Temp. | Humidity | Pressure | Rain* | Wind** | Luminosity | Snow |
|---|---|---|---|---|---|---|---|
| 1778104018 | 16.11° C | 77% | 1011.5 hPa | 0 mm | - | 113 W/m² | - |
| 1778100379 | 16.11° C | 75% | 1012.3 hPa | 0 mm | - | 147 W/m² | - |
| 1778099774 | 16.11° C | 75% | 1012.4 hPa | 0 mm | - | 166 W/m² | - |
| 1778099470 | 16.11° C | 75% | 1012.4 hPa | 0 mm | - | 186 W/m² | - |
| 1778098258 | 16.67° C | 76% | 1012.5 hPa | 0 mm | - | 226 W/m² | - |
| 1778097954 | 16.67° C | 78% | 1012.4 hPa | 0 mm | - | 237 W/m² | - |
| 1778097044 | 15.56° C | 79% | 1013.2 hPa | 0 mm | - | 157 W/m² | - |
| 1778096438 | 15.56° C | 80% | 1013.1 hPa | 0 mm | - | 144 W/m² | - |
| 1778096136 | 15.56° C | 80% | 1013.1 hPa | 0 mm | - | 155 W/m² | - |
| 1778095833 | 15° C | 80% | 1012.6 hPa | 0 mm | - | 160 W/m² | - |
| 1778094316 | 15° C | 81% | 1013 hPa | 0 mm | - | 117 W/m² | - |
| 1778094013 | 15° C | 82% | 1012.8 hPa | 0 mm | - | 121 W/m² | - |
| 1778093710 | 14.44° C | 82% | 1012.6 hPa | 0 mm | - | 136 W/m² | - |
| 1778092801 | 14.44° C | 83% | 1011.8 hPa | 0 mm | - | 170 W/m² | - |
| 1778092496 | 14.44° C | 83% | 1011.8 hPa | 0 mm | - | 144 W/m² | - |
| 1778091286 | 14.44° C | 86% | 1011.7 hPa | 0 mm | - | 246 W/m² | - |
| 1778089769 | 12.78° C | 90% | 1012.2 hPa | 0 mm | - | 126 W/m² | - |
| 1778089467 | 12.78° C | 90% | 1011.8 hPa | 0 mm | - | 104 W/m² | - |
| 1778087951 | 12.22° C | 92% | 1012.4 hPa | 0 mm | - | 92 W/m² | - |
| 1778087347 | 12.22° C | 92% | 1012.2 hPa | 0 mm | - | 94 W/m² | - |
| 1778086439 | 12.22° C | 92% | 1013.2 hPa | 0 mm | - | 55 W/m² | - |
| 1778085826 | 12.22° C | 92% | 1013.7 hPa | 0 mm | - | 51 W/m² | - |
| 1778085218 | 12.22° C | 92% | 1013.7 hPa | 0 mm | - | 41 W/m² | - |
| 1778084309 | 12.22° C | 92% | 1013.1 hPa | 0 mm | - | 97 W/m² | - |
| 1778081662 | 12.22° C | 86% | 1014.7 hPa | 0 mm | - | 4 W/m² | - |
* Rain latest hour (hover to see other rain measurements)
** Current wind speed in m/s (hover to see current wind gust speed)